sensor_id;sensor_type;location;lat;lon;timestamp;P1;durP1;ratioP1;P2;durP2;ratioP2
16731;SDS011;8484;50.904;9.192;2023-07-31T00:01:20;3.43;;;0.90;;
16731;SDS011;8484;50.904;9.192;2023-07-31T00:03:47;2.63;;;1.17;;
16731;SDS011;8484;50.904;9.192;2023-07-31T00:06:14;2.37;;;1.20;;
16731;SDS011;8484;50.904;9.192;2023-07-31T00:08:41;1.10;;;0.63;;
16731;SDS011;8484;50.904;9.192;2023-07-31T00:11:07;1.87;;;1.17;;
16731;SDS011;8484;50.904;9.192;2023-07-31T00:13:36;3.20;;;1.10;;
16731;SDS011;8484;50.904;9.192;2023-07-31T00:16:03;2.93;;;1.03;;
16731;SDS011;8484;50.904;9.192;2023-07-31T00:18:30;2.47;;;1.00;;
16731;SDS011;8484;50.904;9.192;2023-07-31T00:20:57;2.77;;;1.00;;
16731;SDS011;8484;50.904;9.192;2023-07-31T00:23:23;2.60;;;1.20;;
16731;SDS011;8484;50.904;9.192;2023-07-31T00:25:51;3.60;;;1.00;;
16731;SDS011;8484;50.904;9.192;2023-07-31T00:28:18;1.70;;;0.93;;
16731;SDS011;8484;50.904;9.192;2023-07-31T00:30:46;2.93;;;1.07;;
16731;SDS011;8484;50.904;9.192;2023-07-31T00:33:13;4.50;;;1.23;;
16731;SDS011;8484;50.904;9.192;2023-07-31T00:35:40;2.13;;;0.80;;
16731;SDS011;8484;50.904;9.192;2023-07-31T00:38:08;3.17;;;1.17;;
16731;SDS011;8484;50.904;9.192;2023-07-31T00:40:35;3.13;;;1.00;;
16731;SDS011;8484;50.904;9.192;2023-07-31T00:43:03;2.20;;;0.80;;
16731;SDS011;8484;50.904;9.192;2023-07-31T00:45:30;1.40;;;0.80;;
16731;SDS011;8484;50.904;9.192;2023-07-31T00:47:58;4.60;;;0.90;;
16731;SDS011;8484;50.904;9.192;2023-07-31T00:50:26;3.03;;;1.20;;
16731;SDS011;8484;50.904;9.192;2023-07-31T00:52:54;2.20;;;1.00;;
16731;SDS011;8484;50.904;9.192;2023-07-31T00:55:21;3.03;;;1.20;;
16731;SDS011;8484;50.904;9.192;2023-07-31T00:57:48;2.20;;;0.90;;
16731;SDS011;8484;50.904;9.192;2023-07-31T01:00:17;2.67;;;1.07;;
16731;SDS011;8484;50.904;9.192;2023-07-31T01:02:44;2.00;;;1.17;;
16731;SDS011;8484;50.904;9.192;2023-07-31T01:05:13;2.67;;;1.00;;
16731;SDS011;8484;50.904;9.192;2023-07-31T01:07:42;2.30;;;0.90;;
16731;SDS011;8484;50.904;9.192;2023-07-31T01:10:15;1.43;;;0.83;;
16731;SDS011;8484;50.904;9.192;2023-07-31T01:12:46;1.67;;;0.93;;
16731;SDS011;8484;50.904;9.192;2023-07-31T01:15:15;2.13;;;1.00;;
16731;SDS011;8484;50.904;9.192;2023-07-31T01:17:42;1.83;;;0.97;;
16731;SDS011;8484;50.904;9.192;2023-07-31T01:20:10;3.20;;;1.03;;
16731;SDS011;8484;50.904;9.192;2023-07-31T01:22:48;2.17;;;1.00;;
16731;SDS011;8484;50.904;9.192;2023-07-31T01:25:47;2.37;;;1.17;;
16731;SDS011;8484;50.904;9.192;2023-07-31T01:28:22;2.03;;;1.00;;
16731;SDS011;8484;50.904;9.192;2023-07-31T01:30:51;2.77;;;1.20;;
16731;SDS011;8484;50.904;9.192;2023-07-31T01:33:21;1.53;;;0.93;;
16731;SDS011;8484;50.904;9.192;2023-07-31T01:35:48;2.13;;;1.00;;
16731;SDS011;8484;50.904;9.192;2023-07-31T01:38:16;2.13;;;0.90;;
16731;SDS011;8484;50.904;9.192;2023-07-31T01:40:49;2.00;;;1.00;;
16731;SDS011;8484;50.904;9.192;2023-07-31T01:43:18;2.57;;;0.80;;
16731;SDS011;8484;50.904;9.192;2023-07-31T01:45:45;1.83;;;1.00;;
16731;SDS011;8484;50.904;9.192;2023-07-31T01:48:13;5.13;;;1.20;;
16731;SDS011;8484;50.904;9.192;2023-07-31T01:50:41;2.40;;;1.03;;
16731;SDS011;8484;50.904;9.192;2023-07-31T01:53:08;3.67;;;1.00;;
16731;SDS011;8484;50.904;9.192;2023-07-31T01:55:37;2.63;;;1.10;;
16731;SDS011;8484;50.904;9.192;2023-07-31T01:58:05;2.30;;;1.00;;
16731;SDS011;8484;50.904;9.192;2023-07-31T02:00:32;4.27;;;1.33;;
16731;SDS011;8484;50.904;9.192;2023-07-31T02:02:59;1.90;;;0.90;;
16731;SDS011;8484;50.904;9.192;2023-07-31T02:05:26;2.40;;;0.90;;
16731;SDS011;8484;50.904;9.192;2023-07-31T02:07:53;1.83;;;1.00;;
16731;SDS011;8484;50.904;9.192;2023-07-31T02:10:20;2.33;;;1.00;;
16731;SDS011;8484;50.904;9.192;2023-07-31T02:12:47;5.00;;;1.07;;
16731;SDS011;8484;50.904;9.192;2023-07-31T02:15:15;2.30;;;0.90;;
16731;SDS011;8484;50.904;9.192;2023-07-31T02:17:43;2.57;;;1.00;;
16731;SDS011;8484;50.904;9.192;2023-07-31T02:20:10;2.20;;;1.03;;
16731;SDS011;8484;50.904;9.192;2023-07-31T02:22:37;2.10;;;0.90;;
16731;SDS011;8484;50.904;9.192;2023-07-31T02:25:05;2.57;;;1.20;;
16731;SDS011;8484;50.904;9.192;2023-07-31T02:27:32;2.87;;;1.30;;
16731;SDS011;8484;50.904;9.192;2023-07-31T02:29:59;2.40;;;1.20;;
16731;SDS011;8484;50.904;9.192;2023-07-31T02:32:27;1.90;;;0.97;;
16731;SDS011;8484;50.904;9.192;2023-07-31T02:34:54;2.33;;;1.10;;
16731;SDS011;8484;50.904;9.192;2023-07-31T02:37:22;2.03;;;1.10;;
16731;SDS011;8484;50.904;9.192;2023-07-31T02:39:49;3.13;;;1.30;;
16731;SDS011;8484;50.904;9.192;2023-07-31T02:42:16;2.13;;;1.20;;
16731;SDS011;8484;50.904;9.192;2023-07-31T02:44:43;2.73;;;1.23;;
16731;SDS011;8484;50.904;9.192;2023-07-31T02:47:09;2.13;;;1.10;;
16731;SDS011;8484;50.904;9.192;2023-07-31T02:49:38;2.33;;;1.20;;
16731;SDS011;8484;50.904;9.192;2023-07-31T02:52:05;3.20;;;1.27;;
16731;SDS011;8484;50.904;9.192;2023-07-31T02:54:32;2.57;;;1.40;;
16731;SDS011;8484;50.904;9.192;2023-07-31T02:56:59;1.90;;;1.10;;
16731;SDS011;8484;50.904;9.192;2023-07-31T02:59:27;2.47;;;0.97;;
16731;SDS011;8484;50.904;9.192;2023-07-31T03:01:56;2.73;;;1.20;;
16731;SDS011;8484;50.904;9.192;2023-07-31T03:04:23;1.53;;;1.13;;
16731;SDS011;8484;50.904;9.192;2023-07-31T03:06:51;1.20;;;0.80;;
16731;SDS011;8484;50.904;9.192;2023-07-31T03:09:18;2.67;;;1.00;;
16731;SDS011;8484;50.904;9.192;2023-07-31T03:11:45;3.33;;;1.20;;
16731;SDS011;8484;50.904;9.192;2023-07-31T03:14:12;2.73;;;1.13;;
16731;SDS011;8484;50.904;9.192;2023-07-31T03:16:39;3.87;;;1.20;;
16731;SDS011;8484;50.904;9.192;2023-07-31T03:19:09;1.97;;;1.10;;
16731;SDS011;8484;50.904;9.192;2023-07-31T03:21:36;1.90;;;1.10;;
16731;SDS011;8484;50.904;9.192;2023-07-31T03:24:05;2.30;;;0.93;;
16731;SDS011;8484;50.904;9.192;2023-07-31T03:26:32;2.03;;;0.90;;
16731;SDS011;8484;50.904;9.192;2023-07-31T03:28:59;2.57;;;1.20;;
16731;SDS011;8484;50.904;9.192;2023-07-31T03:31:26;2.63;;;1.30;;
16731;SDS011;8484;50.904;9.192;2023-07-31T03:33:53;2.40;;;1.20;;
16731;SDS011;8484;50.904;9.192;2023-07-31T03:36:19;3.67;;;1.27;;
16731;SDS011;8484;50.904;9.192;2023-07-31T03:38:46;3.00;;;1.37;;
16731;SDS011;8484;50.904;9.192;2023-07-31T03:41:15;1.60;;;1.10;;
16731;SDS011;8484;50.904;9.192;2023-07-31T03:43:42;2.60;;;1.00;;
16731;SDS011;8484;50.904;9.192;2023-07-31T03:46:09;2.17;;;1.17;;
16731;SDS011;8484;50.904;9.192;2023-07-31T03:48:36;1.90;;;1.10;;
16731;SDS011;8484;50.904;9.192;2023-07-31T03:51:03;1.90;;;1.07;;
16731;SDS011;8484;50.904;9.192;2023-07-31T03:53:30;2.03;;;0.97;;
16731;SDS011;8484;50.904;9.192;2023-07-31T03:55:56;3.23;;;1.17;;
16731;SDS011;8484;50.904;9.192;2023-07-31T03:58:25;2.60;;;1.13;;
16731;SDS011;8484;50.904;9.192;2023-07-31T04:00:52;2.53;;;1.40;;
16731;SDS011;8484;50.904;9.192;2023-07-31T04:03:19;3.00;;;1.20;;
16731;SDS011;8484;50.904;9.192;2023-07-31T04:05:46;2.17;;;1.10;;
16731;SDS011;8484;50.904;9.192;2023-07-31T04:08:14;3.60;;;1.57;;
16731;SDS011;8484;50.904;9.192;2023-07-31T04:10:41;2.80;;;1.20;;
16731;SDS011;8484;50.904;9.192;2023-07-31T04:13:08;2.27;;;1.30;;
16731;SDS011;8484;50.904;9.192;2023-07-31T04:15:36;1.87;;;1.00;;
16731;SDS011;8484;50.904;9.192;2023-07-31T04:18:03;2.40;;;1.37;;
16731;SDS011;8484;50.904;9.192;2023-07-31T04:20:30;1.93;;;1.00;;
16731;SDS011;8484;50.904;9.192;2023-07-31T04:22:58;2.03;;;1.20;;
16731;SDS011;8484;50.904;9.192;2023-07-31T04:25:25;3.23;;;1.40;;
16731;SDS011;8484;50.904;9.192;2023-07-31T04:27:52;2.73;;;1.63;;
16731;SDS011;8484;50.904;9.192;2023-07-31T04:30:19;2.37;;;1.30;;
16731;SDS011;8484;50.904;9.192;2023-07-31T04:32:47;2.30;;;1.20;;
16731;SDS011;8484;50.904;9.192;2023-07-31T04:35:14;2.13;;;1.40;;
16731;SDS011;8484;50.904;9.192;2023-07-31T04:37:41;2.83;;;1.23;;
16731;SDS011;8484;50.904;9.192;2023-07-31T04:40:10;1.30;;;1.20;;
16731;SDS011;8484;50.904;9.192;2023-07-31T04:42:37;2.53;;;1.20;;
16731;SDS011;8484;50.904;9.192;2023-07-31T04:45:04;2.93;;;1.27;;
16731;SDS011;8484;50.904;9.192;2023-07-31T04:47:32;2.23;;;1.17;;
16731;SDS011;8484;50.904;9.192;2023-07-31T04:50:00;3.37;;;1.30;;
16731;SDS011;8484;50.904;9.192;2023-07-31T04:52:27;7.37;;;1.50;;
16731;SDS011;8484;50.904;9.192;2023-07-31T04:54:54;3.53;;;1.50;;
16731;SDS011;8484;50.904;9.192;2023-07-31T04:57:21;2.37;;;1.40;;
16731;SDS011;8484;50.904;9.192;2023-07-31T04:59:48;2.23;;;1.30;;
16731;SDS011;8484;50.904;9.192;2023-07-31T05:02:15;2.00;;;1.30;;
16731;SDS011;8484;50.904;9.192;2023-07-31T05:04:42;2.73;;;1.47;;
16731;SDS011;8484;50.904;9.192;2023-07-31T05:07:12;2.90;;;1.50;;
16731;SDS011;8484;50.904;9.192;2023-07-31T05:09:39;2.97;;;1.20;;
16731;SDS011;8484;50.904;9.192;2023-07-31T05:12:06;2.50;;;1.40;;
16731;SDS011;8484;50.904;9.192;2023-07-31T05:14:34;3.73;;;1.20;;
16731;SDS011;8484;50.904;9.192;2023-07-31T05:17:01;1.90;;;1.30;;
16731;SDS011;8484;50.904;9.192;2023-07-31T05:19:27;1.97;;;1.30;;
16731;SDS011;8484;50.904;9.192;2023-07-31T05:21:54;4.33;;;1.10;;
16731;SDS011;8484;50.904;9.192;2023-07-31T05:24:23;2.87;;;1.20;;
16731;SDS011;8484;50.904;9.192;2023-07-31T05:26:50;2.20;;;1.33;;
16731;SDS011;8484;50.904;9.192;2023-07-31T05:29:17;3.40;;;1.20;;
16731;SDS011;8484;50.904;9.192;2023-07-31T05:31:43;3.57;;;1.20;;
16731;SDS011;8484;50.904;9.192;2023-07-31T05:34:10;1.90;;;1.07;;
16731;SDS011;8484;50.904;9.192;2023-07-31T05:36:37;1.73;;;1.20;;
16731;SDS011;8484;50.904;9.192;2023-07-31T05:39:04;1.87;;;1.20;;
16731;SDS011;8484;50.904;9.192;2023-07-31T05:41:36;2.00;;;1.10;;
16731;SDS011;8484;50.904;9.192;2023-07-31T05:44:03;2.27;;;1.20;;
16731;SDS011;8484;50.904;9.192;2023-07-31T05:46:30;4.70;;;1.13;;
16731;SDS011;8484;50.904;9.192;2023-07-31T05:48:58;1.90;;;1.27;;
16731;SDS011;8484;50.904;9.192;2023-07-31T05:51:26;1.40;;;1.10;;
16731;SDS011;8484;50.904;9.192;2023-07-31T05:53:53;1.70;;;1.10;;
16731;SDS011;8484;50.904;9.192;2023-07-31T05:56:20;2.90;;;1.40;;
16731;SDS011;8484;50.904;9.192;2023-07-31T05:58:48;1.60;;;1.00;;
16731;SDS011;8484;50.904;9.192;2023-07-31T06:01:15;3.57;;;1.30;;
16731;SDS011;8484;50.904;9.192;2023-07-31T06:03:42;2.23;;;1.03;;
16731;SDS011;8484;50.904;9.192;2023-07-31T06:06:10;2.27;;;1.10;;
16731;SDS011;8484;50.904;9.192;2023-07-31T06:08:38;2.30;;;1.33;;
16731;SDS011;8484;50.904;9.192;2023-07-31T06:11:06;1.80;;;1.10;;
16731;SDS011;8484;50.904;9.192;2023-07-31T06:13:34;1.37;;;0.93;;
16731;SDS011;8484;50.904;9.192;2023-07-31T06:16:02;2.03;;;1.23;;
16731;SDS011;8484;50.904;9.192;2023-07-31T06:18:31;2.43;;;1.20;;
16731;SDS011;8484;50.904;9.192;2023-07-31T06:20:58;2.17;;;1.30;;
16731;SDS011;8484;50.904;9.192;2023-07-31T06:23:25;0.90;;;0.80;;
16731;SDS011;8484;50.904;9.192;2023-07-31T06:25:52;1.73;;;0.97;;
16731;SDS011;8484;50.904;9.192;2023-07-31T06:28:19;1.77;;;1.00;;
16731;SDS011;8484;50.904;9.192;2023-07-31T06:30:46;2.30;;;1.20;;
16731;SDS011;8484;50.904;9.192;2023-07-31T06:33:15;2.17;;;1.23;;
16731;SDS011;8484;50.904;9.192;2023-07-31T06:35:41;1.40;;;1.13;;
16731;SDS011;8484;50.904;9.192;2023-07-31T06:38:09;2.50;;;1.30;;
16731;SDS011;8484;50.904;9.192;2023-07-31T06:40:36;1.77;;;1.07;;
16731;SDS011;8484;50.904;9.192;2023-07-31T06:43:03;1.33;;;1.10;;
16731;SDS011;8484;50.904;9.192;2023-07-31T06:45:33;2.43;;;1.40;;
16731;SDS011;8484;50.904;9.192;2023-07-31T06:48:01;3.07;;;1.30;;
16731;SDS011;8484;50.904;9.192;2023-07-31T06:50:31;2.47;;;1.10;;
16731;SDS011;8484;50.904;9.192;2023-07-31T06:52:58;1.10;;;0.90;;
16731;SDS011;8484;50.904;9.192;2023-07-31T06:55:25;1.97;;;1.10;;
16731;SDS011;8484;50.904;9.192;2023-07-31T06:57:53;1.47;;;1.10;;
16731;SDS011;8484;50.904;9.192;2023-07-31T07:00:22;2.97;;;1.20;;
16731;SDS011;8484;50.904;9.192;2023-07-31T07:02:49;1.67;;;0.97;;
16731;SDS011;8484;50.904;9.192;2023-07-31T07:05:16;1.43;;;1.07;;
16731;SDS011;8484;50.904;9.192;2023-07-31T07:07:45;1.70;;;1.07;;
16731;SDS011;8484;50.904;9.192;2023-07-31T07:10:12;2.27;;;1.00;;
16731;SDS011;8484;50.904;9.192;2023-07-31T07:12:39;0.80;;;0.80;;
16731;SDS011;8484;50.904;9.192;2023-07-31T07:15:06;1.97;;;1.03;;
16731;SDS011;8484;50.904;9.192;2023-07-31T07:17:34;1.87;;;0.80;;
16731;SDS011;8484;50.904;9.192;2023-07-31T07:20:02;1.00;;;0.80;;
16731;SDS011;8484;50.904;9.192;2023-07-31T07:22:32;1.47;;;1.00;;
16731;SDS011;8484;50.904;9.192;2023-07-31T07:25:00;2.43;;;1.00;;
16731;SDS011;8484;50.904;9.192;2023-07-31T07:27:27;3.43;;;1.30;;
16731;SDS011;8484;50.904;9.192;2023-07-31T07:29:54;1.30;;;0.90;;
16731;SDS011;8484;50.904;9.192;2023-07-31T07:32:20;3.00;;;1.10;;
16731;SDS011;8484;50.904;9.192;2023-07-31T07:34:48;3.67;;;1.30;;
16731;SDS011;8484;50.904;9.192;2023-07-31T07:37:15;2.90;;;1.13;;
16731;SDS011;8484;50.904;9.192;2023-07-31T07:39:42;2.73;;;1.27;;
16731;SDS011;8484;50.904;9.192;2023-07-31T07:42:11;3.70;;;1.17;;
16731;SDS011;8484;50.904;9.192;2023-07-31T07:44:38;2.77;;;1.07;;
16731;SDS011;8484;50.904;9.192;2023-07-31T07:47:05;4.30;;;1.30;;
16731;SDS011;8484;50.904;9.192;2023-07-31T07:49:32;2.20;;;1.00;;
16731;SDS011;8484;50.904;9.192;2023-07-31T07:52:00;1.23;;;0.80;;
16731;SDS011;8484;50.904;9.192;2023-07-31T07:54:27;4.17;;;1.17;;
16731;SDS011;8484;50.904;9.192;2023-07-31T07:56:54;4.03;;;1.30;;
16731;SDS011;8484;50.904;9.192;2023-07-31T07:59:22;3.20;;;1.20;;
16731;SDS011;8484;50.904;9.192;2023-07-31T08:01:49;3.07;;;1.20;;
16731;SDS011;8484;50.904;9.192;2023-07-31T08:04:16;2.97;;;1.50;;
16731;SDS011;8484;50.904;9.192;2023-07-31T08:06:43;2.70;;;1.37;;
16731;SDS011;8484;50.904;9.192;2023-07-31T08:09:10;3.47;;;1.30;;
16731;SDS011;8484;50.904;9.192;2023-07-31T08:11:37;4.03;;;1.30;;
16731;SDS011;8484;50.904;9.192;2023-07-31T08:14:03;1.93;;;1.30;;
16731;SDS011;8484;50.904;9.192;2023-07-31T08:16:32;2.37;;;1.50;;
16731;SDS011;8484;50.904;9.192;2023-07-31T08:18:59;2.57;;;1.30;;
16731;SDS011;8484;50.904;9.192;2023-07-31T08:21:26;2.70;;;1.30;;
16731;SDS011;8484;50.904;9.192;2023-07-31T08:23:53;3.30;;;1.60;;
16731;SDS011;8484;50.904;9.192;2023-07-31T08:26:20;2.70;;;1.50;;
16731;SDS011;8484;50.904;9.192;2023-07-31T08:28:47;1.67;;;1.13;;
16731;SDS011;8484;50.904;9.192;2023-07-31T08:31:14;2.27;;;1.30;;
16731;SDS011;8484;50.904;9.192;2023-07-31T08:33:42;4.87;;;1.60;;
16731;SDS011;8484;50.904;9.192;2023-07-31T08:36:09;2.70;;;1.53;;
16731;SDS011;8484;50.904;9.192;2023-07-31T08:38:36;4.27;;;1.50;;
16731;SDS011;8484;50.904;9.192;2023-07-31T08:41:03;2.77;;;1.40;;
16731;SDS011;8484;50.904;9.192;2023-07-31T08:43:30;2.60;;;1.40;;
16731;SDS011;8484;50.904;9.192;2023-07-31T08:45:58;3.50;;;1.20;;
16731;SDS011;8484;50.904;9.192;2023-07-31T08:48:26;2.80;;;1.13;;
16731;SDS011;8484;50.904;9.192;2023-07-31T08:50:57;2.30;;;1.20;;
16731;SDS011;8484;50.904;9.192;2023-07-31T08:53:24;3.17;;;1.50;;
16731;SDS011;8484;50.904;9.192;2023-07-31T08:55:52;2.73;;;1.60;;
16731;SDS011;8484;50.904;9.192;2023-07-31T08:58:20;2.57;;;1.30;;
16731;SDS011;8484;50.904;9.192;2023-07-31T09:00:47;4.83;;;1.57;;
16731;SDS011;8484;50.904;9.192;2023-07-31T09:03:15;3.30;;;1.60;;
16731;SDS011;8484;50.904;9.192;2023-07-31T09:05:44;2.47;;;1.20;;
16731;SDS011;8484;50.904;9.192;2023-07-31T09:08:13;2.63;;;1.50;;
16731;SDS011;8484;50.904;9.192;2023-07-31T09:10:44;3.33;;;1.67;;
16731;SDS011;8484;50.904;9.192;2023-07-31T09:13:13;2.37;;;1.20;;
16731;SDS011;8484;50.904;9.192;2023-07-31T09:15:41;2.43;;;1.43;;
16731;SDS011;8484;50.904;9.192;2023-07-31T09:18:11;3.53;;;1.60;;
16731;SDS011;8484;50.904;9.192;2023-07-31T09:20:39;2.30;;;1.40;;
16731;SDS011;8484;50.904;9.192;2023-07-31T09:23:10;2.60;;;1.27;;
16731;SDS011;8484;50.904;9.192;2023-07-31T09:25:43;3.03;;;1.43;;
16731;SDS011;8484;50.904;9.192;2023-07-31T09:28:10;1.70;;;1.33;;
16731;SDS011;8484;50.904;9.192;2023-07-31T09:30:45;2.37;;;1.20;;
16731;SDS011;8484;50.904;9.192;2023-07-31T09:33:14;3.23;;;1.50;;
16731;SDS011;8484;50.904;9.192;2023-07-31T09:35:41;3.50;;;1.70;;
16731;SDS011;8484;50.904;9.192;2023-07-31T09:38:09;6.67;;;1.83;;
16731;SDS011;8484;50.904;9.192;2023-07-31T09:40:37;3.80;;;1.63;;
16731;SDS011;8484;50.904;9.192;2023-07-31T09:43:08;4.80;;;1.57;;
16731;SDS011;8484;50.904;9.192;2023-07-31T09:45:36;4.30;;;1.57;;
16731;SDS011;8484;50.904;9.192;2023-07-31T09:48:06;2.67;;;1.70;;
16731;SDS011;8484;50.904;9.192;2023-07-31T09:50:36;4.40;;;1.67;;
16731;SDS011;8484;50.904;9.192;2023-07-31T09:53:04;2.23;;;1.47;;
16731;SDS011;8484;50.904;9.192;2023-07-31T09:55:31;4.80;;;1.50;;
16731;SDS011;8484;50.904;9.192;2023-07-31T09:57:59;2.73;;;1.40;;
16731;SDS011;8484;50.904;9.192;2023-07-31T10:00:31;3.80;;;1.63;;
16731;SDS011;8484;50.904;9.192;2023-07-31T10:02:58;4.33;;;1.60;;
16731;SDS011;8484;50.904;9.192;2023-07-31T10:05:27;4.37;;;1.70;;
16731;SDS011;8484;50.904;9.192;2023-07-31T10:08:00;3.93;;;1.80;;
16731;SDS011;8484;50.904;9.192;2023-07-31T10:10:27;6.23;;;2.00;;
16731;SDS011;8484;50.904;9.192;2023-07-31T10:12:54;2.50;;;1.30;;
16731;SDS011;8484;50.904;9.192;2023-07-31T10:15:23;3.53;;;1.40;;
16731;SDS011;8484;50.904;9.192;2023-07-31T10:17:52;1.40;;;1.03;;
16731;SDS011;8484;50.904;9.192;2023-07-31T10:20:21;3.23;;;1.50;;
16731;SDS011;8484;50.904;9.192;2023-07-31T10:22:50;3.73;;;1.53;;
16731;SDS011;8484;50.904;9.192;2023-07-31T10:25:18;4.27;;;1.70;;
16731;SDS011;8484;50.904;9.192;2023-07-31T10:27:46;2.60;;;1.50;;
16731;SDS011;8484;50.904;9.192;2023-07-31T10:30:14;2.53;;;1.57;;
16731;SDS011;8484;50.904;9.192;2023-07-31T10:32:43;3.87;;;1.70;;
16731;SDS011;8484;50.904;9.192;2023-07-31T10:35:12;2.63;;;1.40;;
16731;SDS011;8484;50.904;9.192;2023-07-31T10:37:41;2.47;;;1.53;;
16731;SDS011;8484;50.904;9.192;2023-07-31T10:40:10;2.47;;;1.50;;
16731;SDS011;8484;50.904;9.192;2023-07-31T10:42:38;2.53;;;1.30;;
16731;SDS011;8484;50.904;9.192;2023-07-31T10:45:13;1.27;;;1.17;;
16731;SDS011;8484;50.904;9.192;2023-07-31T10:47:49;3.63;;;1.50;;
16731;SDS011;8484;50.904;9.192;2023-07-31T10:50:28;2.00;;;1.30;;
16731;SDS011;8484;50.904;9.192;2023-07-31T10:52:57;4.43;;;1.40;;
16731;SDS011;8484;50.904;9.192;2023-07-31T10:55:27;2.97;;;1.20;;
16731;SDS011;8484;50.904;9.192;2023-07-31T10:57:56;2.27;;;1.30;;
16731;SDS011;8484;50.904;9.192;2023-07-31T11:00:25;3.10;;;1.10;;
16731;SDS011;8484;50.904;9.192;2023-07-31T11:02:57;1.30;;;1.10;;
16731;SDS011;8484;50.904;9.192;2023-07-31T11:05:42;2.37;;;1.40;;
16731;SDS011;8484;50.904;9.192;2023-07-31T11:08:13;1.10;;;1.00;;
16731;SDS011;8484;50.904;9.192;2023-07-31T11:10:42;1.73;;;1.30;;
16731;SDS011;8484;50.904;9.192;2023-07-31T11:13:09;3.03;;;1.50;;
16731;SDS011;8484;50.904;9.192;2023-07-31T11:15:36;1.93;;;1.27;;
16731;SDS011;8484;50.904;9.192;2023-07-31T11:18:04;3.90;;;1.40;;
16731;SDS011;8484;50.904;9.192;2023-07-31T11:20:33;2.30;;;1.47;;
16731;SDS011;8484;50.904;9.192;2023-07-31T11:23:04;2.90;;;1.50;;
16731;SDS011;8484;50.904;9.192;2023-07-31T11:25:33;3.03;;;1.43;;
16731;SDS011;8484;50.904;9.192;2023-07-31T11:28:04;2.70;;;1.50;;
16731;SDS011;8484;50.904;9.192;2023-07-31T11:30:31;3.10;;;1.40;;
16731;SDS011;8484;50.904;9.192;2023-07-31T11:32:59;3.87;;;1.77;;
16731;SDS011;8484;50.904;9.192;2023-07-31T11:35:28;2.07;;;1.40;;
16731;SDS011;8484;50.904;9.192;2023-07-31T11:37:55;3.30;;;1.70;;
16731;SDS011;8484;50.904;9.192;2023-07-31T11:40:24;5.37;;;1.80;;
16731;SDS011;8484;50.904;9.192;2023-07-31T11:42:54;2.77;;;1.30;;
16731;SDS011;8484;50.904;9.192;2023-07-31T11:45:23;3.97;;;1.47;;
16731;SDS011;8484;50.904;9.192;2023-07-31T11:47:52;4.27;;;1.60;;
16731;SDS011;8484;50.904;9.192;2023-07-31T11:50:20;3.03;;;1.63;;
16731;SDS011;8484;50.904;9.192;2023-07-31T11:52:49;4.03;;;1.63;;
16731;SDS011;8484;50.904;9.192;2023-07-31T11:55:18;2.17;;;1.50;;
16731;SDS011;8484;50.904;9.192;2023-07-31T11:57:47;4.20;;;1.60;;
16731;SDS011;8484;50.904;9.192;2023-07-31T12:00:15;2.33;;;1.47;;
16731;SDS011;8484;50.904;9.192;2023-07-31T12:02:43;8.33;;;1.67;;
16731;SDS011;8484;50.904;9.192;2023-07-31T12:05:11;3.30;;;1.50;;
16731;SDS011;8484;50.904;9.192;2023-07-31T12:07:45;2.40;;;1.30;;
16731;SDS011;8484;50.904;9.192;2023-07-31T12:10:23;14.47;;;1.97;;
16731;SDS011;8484;50.904;9.192;2023-07-31T12:13:00;6.50;;;1.70;;
16731;SDS011;8484;50.904;9.192;2023-07-31T12:15:29;2.80;;;1.43;;
16731;SDS011;8484;50.904;9.192;2023-07-31T12:17:58;4.87;;;1.50;;
16731;SDS011;8484;50.904;9.192;2023-07-31T12:20:25;2.67;;;1.43;;
16731;SDS011;8484;50.904;9.192;2023-07-31T12:22:52;2.27;;;1.27;;
16731;SDS011;8484;50.904;9.192;2023-07-31T12:25:23;1.80;;;1.20;;
16731;SDS011;8484;50.904;9.192;2023-07-31T12:27:54;2.40;;;1.40;;
16731;SDS011;8484;50.904;9.192;2023-07-31T12:30:29;2.17;;;1.10;;
16731;SDS011;8484;50.904;9.192;2023-07-31T12:33:02;2.00;;;1.37;;
16731;SDS011;8484;50.904;9.192;2023-07-31T12:35:34;2.80;;;1.30;;
16731;SDS011;8484;50.904;9.192;2023-07-31T12:38:02;2.03;;;1.27;;
16731;SDS011;8484;50.904;9.192;2023-07-31T12:40:29;2.57;;;1.40;;
16731;SDS011;8484;50.904;9.192;2023-07-31T12:42:56;5.37;;;1.50;;
16731;SDS011;8484;50.904;9.192;2023-07-31T12:45:23;2.13;;;1.53;;
16731;SDS011;8484;50.904;9.192;2023-07-31T12:47:51;2.70;;;1.20;;
16731;SDS011;8484;50.904;9.192;2023-07-31T12:50:18;4.73;;;1.27;;
16731;SDS011;8484;50.904;9.192;2023-07-31T12:52:45;2.57;;;1.30;;
16731;SDS011;8484;50.904;9.192;2023-07-31T12:55:12;3.50;;;1.50;;
16731;SDS011;8484;50.904;9.192;2023-07-31T12:57:39;3.17;;;1.37;;
16731;SDS011;8484;50.904;9.192;2023-07-31T13:00:07;1.93;;;0.90;;
16731;SDS011;8484;50.904;9.192;2023-07-31T13:02:34;3.80;;;1.33;;
16731;SDS011;8484;50.904;9.192;2023-07-31T13:05:03;2.87;;;1.27;;
16731;SDS011;8484;50.904;9.192;2023-07-31T13:07:30;3.80;;;1.40;;
16731;SDS011;8484;50.904;9.192;2023-07-31T13:09:57;1.83;;;1.20;;
16731;SDS011;8484;50.904;9.192;2023-07-31T13:12:24;2.07;;;1.30;;
16731;SDS011;8484;50.904;9.192;2023-07-31T13:14:51;2.00;;;1.03;;
16731;SDS011;8484;50.904;9.192;2023-07-31T13:17:18;2.50;;;1.10;;
16731;SDS011;8484;50.904;9.192;2023-07-31T13:19:45;2.40;;;1.20;;
16731;SDS011;8484;50.904;9.192;2023-07-31T13:22:13;1.63;;;1.10;;
16731;SDS011;8484;50.904;9.192;2023-07-31T13:24:40;4.00;;;2.00;;
16731;SDS011;8484;50.904;9.192;2023-07-31T13:27:07;2.90;;;1.20;;
16731;SDS011;8484;50.904;9.192;2023-07-31T13:29:34;2.23;;;1.30;;
16731;SDS011;8484;50.904;9.192;2023-07-31T13:32:01;1.97;;;1.20;;
16731;SDS011;8484;50.904;9.192;2023-07-31T13:34:28;2.37;;;1.20;;
16731;SDS011;8484;50.904;9.192;2023-07-31T13:36:55;2.60;;;1.03;;
16731;SDS011;8484;50.904;9.192;2023-07-31T13:39:24;1.57;;;1.00;;
16731;SDS011;8484;50.904;9.192;2023-07-31T13:41:51;2.30;;;1.23;;
16731;SDS011;8484;50.904;9.192;2023-07-31T13:44:18;2.30;;;1.27;;
16731;SDS011;8484;50.904;9.192;2023-07-31T13:46:44;2.07;;;1.07;;
16731;SDS011;8484;50.904;9.192;2023-07-31T13:49:11;1.90;;;1.00;;
16731;SDS011;8484;50.904;9.192;2023-07-31T13:51:39;2.73;;;1.20;;
16731;SDS011;8484;50.904;9.192;2023-07-31T13:54:06;1.97;;;1.23;;
16731;SDS011;8484;50.904;9.192;2023-07-31T13:56:34;2.00;;;0.97;;
16731;SDS011;8484;50.904;9.192;2023-07-31T13:59:01;2.70;;;1.10;;
16731;SDS011;8484;50.904;9.192;2023-07-31T14:01:28;1.37;;;1.00;;
16731;SDS011;8484;50.904;9.192;2023-07-31T14:03:55;1.20;;;0.97;;
16731;SDS011;8484;50.904;9.192;2023-07-31T14:06:22;1.77;;;1.00;;
16731;SDS011;8484;50.904;9.192;2023-07-31T14:08:49;1.77;;;1.03;;
16731;SDS011;8484;50.904;9.192;2023-07-31T14:11:16;3.57;;;0.90;;
16731;SDS011;8484;50.904;9.192;2023-07-31T14:13:44;1.43;;;1.20;;
16731;SDS011;8484;50.904;9.192;2023-07-31T14:16:11;3.67;;;1.10;;
16731;SDS011;8484;50.904;9.192;2023-07-31T14:18:38;2.27;;;1.00;;
16731;SDS011;8484;50.904;9.192;2023-07-31T14:21:05;2.77;;;1.10;;
16731;SDS011;8484;50.904;9.192;2023-07-31T14:23:32;0.90;;;0.70;;
16731;SDS011;8484;50.904;9.192;2023-07-31T14:25:59;3.47;;;0.87;;
16731;SDS011;8484;50.904;9.192;2023-07-31T14:28:26;2.00;;;0.93;;
16731;SDS011;8484;50.904;9.192;2023-07-31T14:30:55;3.03;;;1.23;;
16731;SDS011;8484;50.904;9.192;2023-07-31T14:33:22;3.10;;;1.27;;
16731;SDS011;8484;50.904;9.192;2023-07-31T14:35:49;1.63;;;0.90;;
16731;SDS011;8484;50.904;9.192;2023-07-31T14:38:15;1.43;;;0.80;;
16731;SDS011;8484;50.904;9.192;2023-07-31T14:40:42;2.87;;;1.00;;
16731;SDS011;8484;50.904;9.192;2023-07-31T14:43:10;3.33;;;1.00;;
16731;SDS011;8484;50.904;9.192;2023-07-31T14:45:37;1.67;;;1.00;;
16731;SDS011;8484;50.904;9.192;2023-07-31T14:48:06;1.53;;;1.10;;
16731;SDS011;8484;50.904;9.192;2023-07-31T14:50:33;4.30;;;1.00;;
16731;SDS011;8484;50.904;9.192;2023-07-31T14:53:00;2.47;;;1.07;;
16731;SDS011;8484;50.904;9.192;2023-07-31T14:55:26;3.17;;;1.00;;
16731;SDS011;8484;50.904;9.192;2023-07-31T14:57:54;4.13;;;1.10;;
16731;SDS011;8484;50.904;9.192;2023-07-31T15:00:20;1.90;;;1.00;;
16731;SDS011;8484;50.904;9.192;2023-07-31T15:02:49;1.63;;;1.10;;
16731;SDS011;8484;50.904;9.192;2023-07-31T15:05:17;1.13;;;1.07;;